createdAt,value
2023-07-24T00:00:39.229Z,93.29
2023-07-24T00:03:07.303Z,93.60
2023-07-24T00:05:35.362Z,92.72
2023-07-24T00:08:04.704Z,92.75
2023-07-24T00:10:32.481Z,92.73
2023-07-24T00:13:00.260Z,93.09
2023-07-24T00:15:28.027Z,93.27
2023-07-24T00:17:55.812Z,93.19
2023-07-24T00:20:25.409Z,93.47
2023-07-24T00:22:53.216Z,94.08
2023-07-24T00:25:22.414Z,93.59
2023-07-24T00:27:50.149Z,93.61
2023-07-24T00:30:18.158Z,93.35
2023-07-24T00:32:45.983Z,93.70
2023-07-24T00:35:13.866Z,93.93
2023-07-24T00:37:41.633Z,94.29
2023-07-24T00:40:10.486Z,94.28
2023-07-24T00:42:39.657Z,94.33
2023-07-24T00:45:10.215Z,94.04
2023-07-24T00:47:38.502Z,94.35
2023-07-24T00:50:07.763Z,94.33
2023-07-24T00:52:35.672Z,94.41
2023-07-24T00:55:03.751Z,94.43
2023-07-24T00:57:31.682Z,94.18
2023-07-24T01:00:01.877Z,94.11
2023-07-24T01:02:30.150Z,93.82
2023-07-24T01:04:58.224Z,93.70
2023-07-24T01:07:26.369Z,93.71
2023-07-24T01:09:54.143Z,93.61
2023-07-24T01:12:31.579Z,93.31
2023-07-24T01:15:15.345Z,94.67
2023-07-24T01:17:52.467Z,93.62
2023-07-24T01:20:22.059Z,93.50
2023-07-24T01:23:11.883Z,93.87
2023-07-24T01:25:54.897Z,94.52
2023-07-24T01:28:23.587Z,94.66
2023-07-24T01:30:51.703Z,95.00
2023-07-24T01:33:20.914Z,95.23
2023-07-24T01:35:51.668Z,95.76
2023-07-24T01:38:19.641Z,95.51
2023-07-24T01:40:49.768Z,96.01
2023-07-24T01:43:17.716Z,96.35
2023-07-24T01:45:45.480Z,96.88
2023-07-24T01:48:13.375Z,97.24
2023-07-24T01:50:41.223Z,97.44
2023-07-24T01:53:09.320Z,98.39
2023-07-24T01:55:37.321Z,97.96
2023-07-24T01:58:06.569Z,97.69
2023-07-24T02:00:34.368Z,97.54
2023-07-24T02:03:02.237Z,97.68
2023-07-24T02:05:30.914Z,97.79
2023-07-24T02:07:59.021Z,97.84
2023-07-24T02:10:26.878Z,97.58
2023-07-24T02:12:54.654Z,97.62
2023-07-24T02:15:24.405Z,98.05
2023-07-24T02:17:52.193Z,97.88
2023-07-24T02:20:20.029Z,98.15
2023-07-24T02:22:47.777Z,98.22
2023-07-24T02:25:15.593Z,98.24
2023-07-24T02:27:43.679Z,97.88
2023-07-24T02:30:12.681Z,97.94
2023-07-24T02:32:41.901Z,97.83
2023-07-24T02:35:10.641Z,97.83
2023-07-24T02:37:39.639Z,97.76
2023-07-24T02:40:09.051Z,97.72
2023-07-24T02:42:36.845Z,97.97
2023-07-24T02:45:05.196Z,98.13
2023-07-24T02:47:32.990Z,98.23
2023-07-24T02:50:02.143Z,98.20
2023-07-24T02:52:29.893Z,98.48
2023-07-24T02:54:57.760Z,98.32
2023-07-24T02:57:25.558Z,98.65
2023-07-24T02:59:53.776Z,98.98
2023-07-24T03:02:21.642Z,99.17
2023-07-24T03:04:49.812Z,100.00
2023-07-24T03:07:18.948Z,99.86
2023-07-24T03:09:48.961Z,99.58
2023-07-24T03:12:17.220Z,99.66
2023-07-24T03:14:45.282Z,99.81
2023-07-24T03:17:13.373Z,99.95
2023-07-24T03:19:41.219Z,100.00
2023-07-24T03:22:09.125Z,100.00
2023-07-24T03:24:38.365Z,100.00
2023-07-24T03:27:06.405Z,100.00
2023-07-24T03:29:34.236Z,100.00
2023-07-24T03:32:02.047Z,100.00
2023-07-24T03:34:29.863Z,99.96
2023-07-24T03:36:57.739Z,99.95
2023-07-24T03:39:25.613Z,99.88
2023-07-24T03:41:55.000Z,99.32
2023-07-24T03:44:22.806Z,99.05
2023-07-24T03:46:50.605Z,98.95
2023-07-24T03:49:18.384Z,98.83
2023-07-24T03:51:46.293Z,98.27
2023-07-24T03:54:14.049Z,97.90
2023-07-24T03:56:42.166Z,97.79
2023-07-24T03:59:11.467Z,96.99
2023-07-24T04:01:39.708Z,96.51
2023-07-24T04:04:07.485Z,96.14
2023-07-24T04:06:35.367Z,95.68
2023-07-24T04:09:03.193Z,95.07
2023-07-24T04:11:30.975Z,94.60
2023-07-24T04:13:58.728Z,94.00
2023-07-24T04:16:29.668Z,93.75
2023-07-24T04:18:57.595Z,93.81
2023-07-24T04:21:25.372Z,93.59
2023-07-24T04:23:53.208Z,93.46
2023-07-24T04:26:21.045Z,93.47
2023-07-24T04:28:48.838Z,93.06
2023-07-24T04:31:16.963Z,92.68
2023-07-24T04:33:46.210Z,92.19
2023-07-24T04:36:16.404Z,92.06
2023-07-24T04:38:47.601Z,91.63
2023-07-24T04:41:15.421Z,91.43
2023-07-24T04:43:43.208Z,91.27
2023-07-24T04:46:11.058Z,91.17
2023-07-24T04:48:38.935Z,90.68
2023-07-24T04:51:08.152Z,90.38
2023-07-24T04:53:36.059Z,90.13
2023-07-24T04:56:03.891Z,90.00
2023-07-24T04:58:31.790Z,89.87
2023-07-24T05:00:59.551Z,89.51
2023-07-24T05:03:27.404Z,89.19
2023-07-24T05:05:57.192Z,88.66
2023-07-24T05:08:26.402Z,88.19
2023-07-24T05:10:57.457Z,88.10
2023-07-24T05:13:25.290Z,88.19
2023-07-24T05:15:53.298Z,88.10
2023-07-24T05:18:21.509Z,88.04
2023-07-24T05:20:52.353Z,88.19
2023-07-24T05:23:20.338Z,87.93
2023-07-24T05:25:49.526Z,88.08
2023-07-24T05:28:17.409Z,87.95
2023-07-24T05:30:45.180Z,87.83
2023-07-24T05:33:12.958Z,87.71
2023-07-24T05:35:40.723Z,87.61
2023-07-24T05:38:08.654Z,87.39
2023-07-24T05:40:36.472Z,87.08
2023-07-24T05:43:05.953Z,86.55
2023-07-24T05:45:33.711Z,86.95
2023-07-24T05:48:01.563Z,87.42
2023-07-24T05:50:29.444Z,87.80
2023-07-24T05:52:57.222Z,88.62
2023-07-24T05:55:25.148Z,88.41
2023-07-24T05:57:53.018Z,88.44
2023-07-24T06:00:22.318Z,88.95
2023-07-24T06:02:50.222Z,89.25
2023-07-24T06:05:18.213Z,89.08
2023-07-24T06:07:46.023Z,89.55
2023-07-24T06:10:14.006Z,89.98
2023-07-24T06:12:41.993Z,89.81
2023-07-24T06:15:10.340Z,90.13
2023-07-24T06:17:39.707Z,90.39
2023-07-24T06:20:09.050Z,90.83
2023-07-24T06:22:36.882Z,91.26
2023-07-24T06:25:04.940Z,91.20
2023-07-24T06:27:32.787Z,91.32
2023-07-24T06:30:09.287Z,91.20
2023-07-24T06:32:44.121Z,90.93
2023-07-24T06:35:12.370Z,90.89
2023-07-24T06:37:40.165Z,90.95
2023-07-24T06:40:09.457Z,90.65
2023-07-24T06:42:37.305Z,90.34
2023-07-24T06:45:08.398Z,89.95
2023-07-24T06:47:36.471Z,89.17
2023-07-24T06:50:06.894Z,89.05
2023-07-24T06:52:35.139Z,88.96
2023-07-24T06:55:03.201Z,87.64
2023-07-24T06:57:31.051Z,86.84
2023-07-24T06:59:58.845Z,86.93
2023-07-24T07:02:27.033Z,86.95
2023-07-24T07:04:54.909Z,85.93
2023-07-24T07:07:24.097Z,85.42
2023-07-24T07:09:51.936Z,85.88
2023-07-24T07:12:22.214Z,85.54
2023-07-24T07:14:50.349Z,85.76
2023-07-24T07:17:18.217Z,85.18
2023-07-24T07:19:48.141Z,83.29
2023-07-24T07:22:16.568Z,82.26
2023-07-24T07:24:47.861Z,80.88
2023-07-24T07:27:18.276Z,81.51
2023-07-24T07:29:46.109Z,82.11
2023-07-24T07:32:13.944Z,80.93
2023-07-24T07:34:41.672Z,79.80
2023-07-24T07:37:09.654Z,79.37
2023-07-24T07:39:38.305Z,80.20
2023-07-24T07:42:17.800Z,79.76
2023-07-24T07:44:47.077Z,78.61
2023-07-24T07:47:14.918Z,79.02
2023-07-24T07:49:42.924Z,78.85
2023-07-24T07:52:10.753Z,78.95
2023-07-24T07:54:38.922Z,79.63
2023-07-24T07:57:08.129Z,79.22
2023-07-24T07:59:36.271Z,79.49
2023-07-24T08:02:04.267Z,78.85
2023-07-24T08:04:32.338Z,77.75
2023-07-24T08:07:00.088Z,77.68
2023-07-24T08:09:27.887Z,76.77
2023-07-24T08:11:55.770Z,75.74
2023-07-24T08:14:24.990Z,74.48
2023-07-24T08:16:54.313Z,72.30
2023-07-24T08:19:22.358Z,71.47
2023-07-24T08:21:50.145Z,71.21
2023-07-24T08:24:17.980Z,70.93
2023-07-24T08:26:46.226Z,71.70
2023-07-24T08:29:14.787Z,71.30
2023-07-24T08:31:43.970Z,71.13
2023-07-24T08:34:11.845Z,71.06
2023-07-24T08:36:39.685Z,71.36
2023-07-24T08:39:07.497Z,72.10
2023-07-24T08:41:36.518Z,71.74
2023-07-24T08:44:05.815Z,71.01
2023-07-24T08:46:37.470Z,71.16
2023-07-24T08:49:08.155Z,70.94
2023-07-24T08:51:37.463Z,70.88
2023-07-24T08:54:06.335Z,70.94
2023-07-24T08:56:34.537Z,71.34
2023-07-24T08:59:02.379Z,70.72
2023-07-24T09:01:30.192Z,69.87
2023-07-24T09:03:58.439Z,69.38
2023-07-24T09:06:28.995Z,70.77
2023-07-24T09:08:57.237Z,70.18
2023-07-24T09:11:25.017Z,70.01
2023-07-24T09:13:55.193Z,69.26
2023-07-24T09:16:25.393Z,69.44
2023-07-24T09:21:33.504Z,67.01
2023-07-24T09:24:12.056Z,66.42
2023-07-24T09:26:49.252Z,67.22
2023-07-24T09:29:17.846Z,67.90
2023-07-24T09:31:46.701Z,67.71
2023-07-24T09:34:18.896Z,66.64
2023-07-24T09:36:50.588Z,65.13
2023-07-24T09:39:25.414Z,62.46
2023-07-24T09:41:53.557Z,63.67
2023-07-24T09:44:21.328Z,64.15
2023-07-24T09:47:07.253Z,64.75
2023-07-24T09:49:37.617Z,66.79
2023-07-24T09:52:12.468Z,68.30
2023-07-24T09:54:50.639Z,68.60
2023-07-24T09:57:22.228Z,68.40
2023-07-24T09:59:51.709Z,68.02
2023-07-24T10:02:20.133Z,68.02
2023-07-24T10:04:48.910Z,68.07
2023-07-24T10:07:22.722Z,68.64
2023-07-24T10:09:51.710Z,68.92
2023-07-24T10:12:20.715Z,68.40
2023-07-24T10:14:49.490Z,67.97
2023-07-24T10:17:36.445Z,68.38
2023-07-24T10:20:06.132Z,67.94
2023-07-24T10:22:35.585Z,66.58
2023-07-24T10:25:03.540Z,65.00
2023-07-24T10:27:31.509Z,66.13
2023-07-24T10:30:14.878Z,65.57
2023-07-24T10:32:55.695Z,64.66
2023-07-24T10:35:25.732Z,62.61
2023-07-24T10:38:04.008Z,63.26
2023-07-24T10:40:32.393Z,63.21
2023-07-24T10:43:07.003Z,62.74
2023-07-24T10:45:42.668Z,64.36
2023-07-24T10:48:12.802Z,65.47
2023-07-24T10:50:42.128Z,65.65
2023-07-24T10:53:12.687Z,66.65
2023-07-24T10:55:40.575Z,67.44
2023-07-24T10:58:10.889Z,66.33
2023-07-24T11:00:38.729Z,66.29
2023-07-24T11:03:07.367Z,66.07
2023-07-24T11:05:35.223Z,65.38
2023-07-24T11:08:03.393Z,65.46
2023-07-24T11:10:32.560Z,66.85
2023-07-24T11:13:00.408Z,67.32
2023-07-24T11:15:28.799Z,68.34
2023-07-24T11:17:56.648Z,69.18
2023-07-24T11:20:24.600Z,68.80
2023-07-24T11:22:52.433Z,69.87
2023-07-24T11:25:20.253Z,70.21
2023-07-24T11:27:49.367Z,68.64
2023-07-24T11:30:21.983Z,68.18
2023-07-24T11:32:51.211Z,68.03
2023-07-24T11:35:19.792Z,66.92
2023-07-24T11:37:47.712Z,66.22
2023-07-24T11:40:17.013Z,65.30
2023-07-24T11:42:46.220Z,64.95
2023-07-24T11:45:17.626Z,65.34
2023-07-24T11:47:47.644Z,66.23
2023-07-24T11:50:20.025Z,67.23
2023-07-24T11:52:49.704Z,68.17
2023-07-24T11:55:19.506Z,68.34
2023-07-24T11:57:57.788Z,68.88
2023-07-24T12:00:29.085Z,68.34
2023-07-24T12:03:01.704Z,68.45
2023-07-24T12:05:29.675Z,68.28
2023-07-24T12:07:57.623Z,68.31
2023-07-24T12:10:29.522Z,67.53
2023-07-24T12:13:01.192Z,67.96
2023-07-24T12:15:30.444Z,66.97
2023-07-24T12:17:58.536Z,66.87
2023-07-24T12:20:26.529Z,66.33
2023-07-24T12:22:54.829Z,65.45
2023-07-24T12:25:22.995Z,66.74
2023-07-24T12:27:50.800Z,66.72
2023-07-24T12:30:18.801Z,67.58
2023-07-24T12:32:48.325Z,67.65
2023-07-24T12:35:17.634Z,68.73
2023-07-24T12:37:46.656Z,69.43
2023-07-24T12:40:14.901Z,70.97
2023-07-24T12:42:42.728Z,71.88
2023-07-24T12:45:11.121Z,72.30
2023-07-24T12:47:38.996Z,73.20
2023-07-24T12:50:08.895Z,74.47
2023-07-24T12:52:36.680Z,75.44
2023-07-24T12:55:06.101Z,77.02
2023-07-24T12:57:33.870Z,79.15
2023-07-24T13:00:01.741Z,85.38
2023-07-24T13:02:29.669Z,86.12
2023-07-24T13:04:57.527Z,86.62
2023-07-24T13:07:26.669Z,87.04
2023-07-24T13:09:54.498Z,87.79
2023-07-24T13:12:22.559Z,87.75
2023-07-24T13:14:50.316Z,87.85
2023-07-24T13:17:18.478Z,87.66
2023-07-24T13:19:46.317Z,87.92
2023-07-24T13:22:14.211Z,88.48
2023-07-24T13:24:43.430Z,89.04
2023-07-24T13:27:11.292Z,88.15
2023-07-24T13:29:39.038Z,87.54
2023-07-24T13:32:07.426Z,87.09
2023-07-24T13:34:35.300Z,85.89
2023-07-24T13:37:03.080Z,85.58
2023-07-24T13:39:32.820Z,84.96
2023-07-24T13:42:02.118Z,84.48
2023-07-24T13:44:29.938Z,84.12
2023-07-24T13:46:57.838Z,83.35
2023-07-24T13:49:25.729Z,82.87
2023-07-24T13:51:53.698Z,82.78
2023-07-24T13:54:21.502Z,82.38
2023-07-24T13:56:49.403Z,82.32
2023-07-24T13:59:18.778Z,80.62
2023-07-24T14:01:46.875Z,79.33
2023-07-24T14:04:16.540Z,78.36
2023-07-24T14:06:44.371Z,77.94
2023-07-24T14:09:14.118Z,77.00
2023-07-24T14:11:41.908Z,76.54
2023-07-24T14:14:10.113Z,75.81
2023-07-24T14:16:41.856Z,75.48
2023-07-24T14:19:10.851Z,73.59
2023-07-24T14:21:38.585Z,73.82
2023-07-24T14:24:06.931Z,73.96
2023-07-24T14:26:34.947Z,73.79
2023-07-24T14:29:02.704Z,73.96
2023-07-24T14:31:31.050Z,73.15
2023-07-24T14:34:00.964Z,72.03
2023-07-24T14:36:34.793Z,72.59
2023-07-24T14:39:03.342Z,73.08
2023-07-24T14:41:31.653Z,72.65
2023-07-24T14:43:59.990Z,73.00
2023-07-24T14:46:27.879Z,73.98
2023-07-24T14:48:55.681Z,75.11
2023-07-24T14:51:25.773Z,74.65
2023-07-24T14:53:53.563Z,75.37
2023-07-24T14:56:21.707Z,75.10
2023-07-24T14:58:49.603Z,75.27
2023-07-24T15:01:17.583Z,75.66
2023-07-24T15:03:45.542Z,74.50
2023-07-24T15:06:13.381Z,74.82
2023-07-24T15:08:42.639Z,75.36
2023-07-24T15:11:10.371Z,74.77
2023-07-24T15:13:38.231Z,74.37
2023-07-24T15:16:06.851Z,72.92
2023-07-24T15:18:35.983Z,73.65
2023-07-24T15:21:04.088Z,73.13
2023-07-24T15:23:31.911Z,72.96
2023-07-24T15:26:01.281Z,72.75
2023-07-24T15:28:29.064Z,72.99
2023-07-24T15:30:57.012Z,73.46
2023-07-24T15:33:24.881Z,74.08
2023-07-24T15:35:52.772Z,74.98
2023-07-24T15:38:20.676Z,74.95
2023-07-24T15:40:48.635Z,73.42
2023-07-24T15:43:18.563Z,73.73
2023-07-24T15:45:46.775Z,73.21
2023-07-24T15:48:18.295Z,72.78
2023-07-24T15:50:50.845Z,73.12
2023-07-24T15:53:18.764Z,72.96
2023-07-24T15:55:46.513Z,72.59
2023-07-24T15:58:14.300Z,71.72
2023-07-24T16:00:43.885Z,71.55
2023-07-24T16:03:11.759Z,72.59
2023-07-24T16:05:39.740Z,72.85
2023-07-24T16:08:07.653Z,72.78
2023-07-24T16:10:35.594Z,72.07
2023-07-24T16:13:03.344Z,72.13
2023-07-24T16:20:35.577Z,73.30
2023-07-24T16:23:03.630Z,73.91
2023-07-24T16:25:31.408Z,74.60
2023-07-24T16:27:59.385Z,74.78
2023-07-24T16:30:27.730Z,74.90
2023-07-24T16:32:55.748Z,75.39
2023-07-24T16:35:24.937Z,75.79
2023-07-24T16:37:53.102Z,75.68
2023-07-24T16:40:21.142Z,75.44
2023-07-24T16:42:51.819Z,74.66
2023-07-24T16:47:55.099Z,73.79
2023-07-24T16:50:24.453Z,73.79
2023-07-24T16:52:52.288Z,74.23
2023-07-24T16:55:20.137Z,74.82
2023-07-24T16:57:48.063Z,75.57
2023-07-24T17:00:17.366Z,76.08
2023-07-24T17:02:45.227Z,76.87
2023-07-24T17:05:13.020Z,77.67
2023-07-24T17:07:42.225Z,79.58
2023-07-24T17:10:10.647Z,80.06
2023-07-24T17:12:38.488Z,80.62
2023-07-24T17:15:07.273Z,81.06
2023-07-24T17:17:35.299Z,81.25
2023-07-24T17:20:03.276Z,81.29
2023-07-24T17:22:31.346Z,80.57
2023-07-24T17:25:00.579Z,80.46
2023-07-24T17:27:30.189Z,80.88
2023-07-24T17:29:58.371Z,81.50
2023-07-24T17:32:26.167Z,81.11
2023-07-24T17:34:54.009Z,81.11
2023-07-24T17:37:36.579Z,81.09
2023-07-24T17:40:09.103Z,81.37
2023-07-24T17:42:38.117Z,82.18
2023-07-24T17:45:06.666Z,82.94
2023-07-24T17:47:35.645Z,83.64
2023-07-24T17:50:07.980Z,84.49
2023-07-24T17:52:36.702Z,84.96
2023-07-24T17:55:05.290Z,85.28
2023-07-24T17:57:35.052Z,85.86
2023-07-24T18:00:04.140Z,86.07
2023-07-24T18:02:33.019Z,86.96
2023-07-24T18:05:00.903Z,87.32
2023-07-24T18:07:28.660Z,87.85
2023-07-24T18:09:56.435Z,84.42
2023-07-24T18:12:24.907Z,82.70
2023-07-24T18:14:54.027Z,82.39
2023-07-24T18:17:21.844Z,80.84
2023-07-24T18:19:50.097Z,79.38
2023-07-24T18:22:20.127Z,77.11
2023-07-24T18:24:48.335Z,77.96
2023-07-24T18:27:16.210Z,77.07
2023-07-24T18:29:46.044Z,77.34
2023-07-24T18:32:15.209Z,77.25
2023-07-24T18:34:43.111Z,77.05
2023-07-24T18:37:10.852Z,77.22
2023-07-24T18:39:38.731Z,77.53
2023-07-24T18:42:07.015Z,78.14
2023-07-24T18:44:36.110Z,78.91
2023-07-24T18:47:04.068Z,79.16
2023-07-24T18:49:33.171Z,79.44
2023-07-24T18:52:00.927Z,79.81
2023-07-24T18:54:28.709Z,80.28
2023-07-24T18:56:56.886Z,80.55
2023-07-24T18:59:25.016Z,81.19
2023-07-24T19:01:53.180Z,81.79
2023-07-24T19:04:21.016Z,82.10
2023-07-24T19:06:50.185Z,82.39
2023-07-24T19:09:18.006Z,82.77
2023-07-24T19:11:46.142Z,83.35
2023-07-24T19:14:14.002Z,83.77
2023-07-24T19:16:41.867Z,83.95
2023-07-24T19:19:09.701Z,84.61
2023-07-24T19:21:37.940Z,85.10
2023-07-24T19:24:07.817Z,85.59
2023-07-24T19:26:35.713Z,86.15
2023-07-24T19:29:03.617Z,86.75
2023-07-24T19:31:32.468Z,86.94
2023-07-24T19:34:00.545Z,87.73
2023-07-24T19:36:28.741Z,88.10
2023-07-24T19:38:56.542Z,88.00
2023-07-24T19:41:25.746Z,88.35
2023-07-24T19:43:53.780Z,89.04
2023-07-24T19:46:24.735Z,89.36
2023-07-24T19:48:52.564Z,89.33
2023-07-24T19:51:20.501Z,88.69
2023-07-24T19:53:48.370Z,88.99
2023-07-24T19:56:16.323Z,88.83
2023-07-24T19:58:45.553Z,89.48
2023-07-24T20:01:13.510Z,89.75
2023-07-24T20:03:41.564Z,89.96
2023-07-24T20:06:11.970Z,89.93
2023-07-24T20:08:39.987Z,90.17
2023-07-24T20:11:08.087Z,90.63
2023-07-24T20:13:37.744Z,90.71
2023-07-24T20:16:07.424Z,91.38
2023-07-24T20:18:35.302Z,90.82
2023-07-24T20:21:03.941Z,90.31
2023-07-24T20:23:32.149Z,90.27
2023-07-24T20:25:59.961Z,90.20
2023-07-24T20:28:28.063Z,90.00
2023-07-24T20:30:55.851Z,89.54
2023-07-24T20:33:27.573Z,89.31
2023-07-24T20:35:55.589Z,89.06
2023-07-24T20:38:24.743Z,88.84
2023-07-24T20:40:52.610Z,88.59
2023-07-24T20:43:20.450Z,88.88
2023-07-24T20:45:48.356Z,88.71
2023-07-24T20:48:16.891Z,88.08
2023-07-24T20:50:47.080Z,87.29
2023-07-24T20:53:14.964Z,86.98
2023-07-24T20:55:43.020Z,86.52
2023-07-24T20:58:12.046Z,86.75
2023-07-24T21:00:39.801Z,86.51
2023-07-24T21:03:08.202Z,85.68
2023-07-24T21:05:38.071Z,85.54
2023-07-24T21:08:08.427Z,85.29
2023-07-24T21:10:36.222Z,85.36
2023-07-24T21:13:04.122Z,85.60
2023-07-24T21:15:31.912Z,85.21
2023-07-24T21:17:59.711Z,85.61
2023-07-24T21:20:27.780Z,85.50
2023-07-24T21:22:55.643Z,85.66
2023-07-24T21:25:24.846Z,86.21
2023-07-24T21:27:52.735Z,85.93
2023-07-24T21:30:21.671Z,86.40
2023-07-24T21:32:49.651Z,86.50
2023-07-24T21:35:20.326Z,86.82
2023-07-24T21:37:48.361Z,86.68
2023-07-24T21:40:16.166Z,86.77
2023-07-24T21:42:45.405Z,86.62
2023-07-24T21:45:13.360Z,86.91
2023-07-24T21:47:41.164Z,86.90
2023-07-24T21:50:09.852Z,86.96
2023-07-24T21:52:37.668Z,87.12
2023-07-24T21:55:06.272Z,87.39
2023-07-24T21:57:34.297Z,87.39
2023-07-24T22:00:04.500Z,87.61
2023-07-24T22:02:40.084Z,87.15
2023-07-24T22:05:08.265Z,86.91
2023-07-24T22:07:36.207Z,86.83
2023-07-24T22:10:04.211Z,86.71
2023-07-24T22:12:32.161Z,86.32
2023-07-24T22:14:59.960Z,85.93
2023-07-24T22:17:30.076Z,85.30
2023-07-24T22:19:58.544Z,85.11
2023-07-24T22:22:26.290Z,84.80
2023-07-24T22:24:54.214Z,84.53
2023-07-24T22:27:22.008Z,84.17
2023-07-24T22:29:50.232Z,84.09
2023-07-24T22:32:18.103Z,83.48
2023-07-24T22:34:50.021Z,83.76
2023-07-24T22:37:18.098Z,83.58
2023-07-24T22:39:45.942Z,83.36
2023-07-24T22:42:13.773Z,83.79
2023-07-24T22:44:41.739Z,83.79
2023-07-24T22:47:09.582Z,83.53
2023-07-24T22:49:37.458Z,83.43
2023-07-24T22:52:07.660Z,83.72
2023-07-24T22:54:35.550Z,83.37
2023-07-24T22:57:03.410Z,83.61
2023-07-24T22:59:31.391Z,83.45
2023-07-24T23:02:00.085Z,83.63
2023-07-24T23:04:27.886Z,83.95
2023-07-24T23:06:56.744Z,84.11
2023-07-24T23:09:26.014Z,84.47
2023-07-24T23:11:53.778Z,84.62
2023-07-24T23:14:21.469Z,84.57
2023-07-24T23:16:49.173Z,84.92
2023-07-24T23:19:16.933Z,84.82
2023-07-24T23:21:44.636Z,84.49
2023-07-24T23:24:12.359Z,84.66
2023-07-24T23:26:41.484Z,84.61
2023-07-24T23:29:09.285Z,84.47
2023-07-24T23:31:37.001Z,84.38
2023-07-24T23:34:04.756Z,84.46
2023-07-24T23:36:32.644Z,84.28
2023-07-24T23:39:00.370Z,84.22
2023-07-24T23:41:28.478Z,84.44
2023-07-24T23:43:58.030Z,84.33
2023-07-24T23:46:25.838Z,84.27
2023-07-24T23:48:53.979Z,83.82
2023-07-24T23:51:22.623Z,83.93
2023-07-24T23:53:51.586Z,84.01
2023-07-24T23:56:20.025Z,83.94
2023-07-24T23:58:47.814Z,83.74
